createdAt,value
2023-09-27T00:03:44.518Z,15.50
2023-09-27T00:08:46.244Z,15.50
2023-09-27T00:13:48.145Z,15.40
2023-09-27T00:18:49.950Z,15.40
2023-09-27T00:23:51.710Z,15.40
2023-09-27T00:28:53.592Z,15.30
2023-09-27T00:33:55.524Z,15.30
2023-09-27T00:38:57.246Z,15.20
2023-09-27T00:43:58.990Z,15.20
2023-09-27T00:49:01.039Z,15.20
2023-09-27T00:54:03.370Z,15.10
2023-09-27T00:59:06.033Z,15.20
2023-09-27T01:04:08.606Z,15.10
2023-09-27T01:09:10.436Z,15.00
2023-09-27T01:14:12.202Z,15.00
2023-09-27T01:19:13.989Z,14.90
2023-09-27T01:24:16.598Z,14.90
2023-09-27T01:29:18.436Z,14.90
2023-09-27T01:34:20.143Z,14.80
2023-09-27T01:39:21.943Z,14.80
2023-09-27T01:44:23.857Z,14.80
2023-09-27T01:49:25.867Z,14.80
2023-09-27T01:54:27.659Z,14.70
2023-09-27T01:59:29.765Z,14.70
2023-09-27T02:04:31.483Z,14.60
2023-09-27T02:09:33.335Z,14.60
2023-09-27T02:14:35.071Z,14.60
2023-09-27T02:19:36.902Z,14.60
2023-09-27T02:24:38.632Z,14.50
2023-09-27T02:29:40.517Z,14.40
2023-09-27T02:34:43.420Z,14.50
2023-09-27T02:39:45.234Z,14.50
2023-09-27T02:44:48.647Z,14.40
2023-09-27T02:49:50.435Z,14.30
2023-09-27T02:54:52.312Z,14.40
2023-09-27T02:59:54.052Z,14.40
2023-09-27T03:04:56.887Z,14.40
2023-09-27T03:09:59.894Z,14.30
2023-09-27T03:15:01.720Z,14.30
2023-09-27T03:20:06.065Z,14.30
2023-09-27T03:25:08.827Z,14.30
2023-09-27T03:30:11.889Z,14.30
2023-09-27T03:35:14.048Z,14.30
2023-09-27T03:40:16.353Z,14.30
2023-09-27T03:45:18.562Z,14.30
2023-09-27T03:50:20.482Z,14.30
2023-09-27T03:55:22.224Z,14.30
2023-09-27T04:00:24.871Z,14.30
2023-09-27T04:05:28.152Z,14.20
2023-09-27T04:10:30.515Z,14.20
2023-09-27T04:15:32.805Z,14.30
2023-09-27T04:20:36.285Z,14.40
2023-09-27T04:25:38.924Z,14.40
2023-09-27T04:30:40.764Z,14.40
2023-09-27T04:35:42.621Z,14.40
2023-09-27T04:40:44.633Z,14.40
2023-09-27T04:45:46.538Z,14.40
2023-09-27T04:50:48.341Z,14.30
2023-09-27T04:55:50.610Z,14.20
2023-09-27T05:00:52.375Z,14.20
2023-09-27T05:05:54.150Z,14.30
2023-09-27T05:10:57.421Z,14.20
2023-09-27T05:15:59.427Z,14.20
2023-09-27T05:21:06.276Z,14.20
2023-09-27T05:26:08.023Z,14.20
2023-09-27T05:31:09.788Z,14.20
2023-09-27T05:36:11.599Z,14.20
2023-09-27T05:41:13.479Z,14.20
2023-09-27T05:46:15.279Z,14.30
2023-09-27T05:51:17.064Z,14.30
2023-09-27T05:56:19.309Z,14.30
2023-09-27T06:01:21.452Z,14.40
2023-09-27T06:06:23.224Z,14.40
2023-09-27T06:11:25.298Z,14.40
2023-09-27T06:16:27.373Z,14.40
2023-09-27T06:21:29.199Z,14.50
2023-09-27T06:26:30.956Z,14.60
2023-09-27T06:31:32.846Z,14.60
2023-09-27T06:36:36.065Z,14.60
2023-09-27T06:41:37.875Z,14.80
2023-09-27T06:46:48.847Z,14.90
2023-09-27T06:51:51.609Z,15.00
2023-09-27T06:56:53.342Z,15.00
2023-09-27T07:01:55.061Z,15.10
2023-09-27T07:06:56.887Z,15.20
2023-09-27T07:11:58.859Z,15.30
2023-09-27T07:17:01.815Z,15.40
2023-09-27T07:22:09.113Z,15.50
2023-09-27T07:27:11.180Z,15.80
2023-09-27T07:32:13.048Z,16.10
2023-09-27T07:37:15.408Z,16.30
2023-09-27T07:42:17.179Z,16.50
2023-09-27T07:47:20.192Z,16.60
2023-09-27T07:52:21.973Z,16.70
2023-09-27T07:57:24.045Z,16.90
2023-09-27T08:02:27.260Z,17.10
2023-09-27T08:07:29.407Z,17.20
2023-09-27T08:12:32.536Z,17.30
2023-09-27T08:17:35.029Z,17.40
2023-09-27T08:22:37.963Z,17.30
2023-09-27T08:27:39.705Z,17.50
2023-09-27T08:32:42.731Z,17.70
2023-09-27T08:37:45.166Z,17.70
2023-09-27T08:42:52.322Z,17.80
2023-09-27T08:47:55.473Z,18.00
2023-09-27T08:52:57.542Z,18.30
2023-09-27T08:58:00.153Z,18.40
2023-09-27T09:03:03.169Z,18.50
2023-09-27T09:08:06.697Z,18.60
2023-09-27T09:13:09.724Z,18.70
2023-09-27T09:18:30.124Z,18.90
2023-09-27T09:23:37.320Z,19.10
2023-09-27T09:29:01.775Z,19.20
2023-09-27T09:34:10.308Z,19.30
2023-09-27T09:39:15.657Z,19.30
2023-09-27T09:44:26.694Z,19.50
2023-09-27T09:49:28.450Z,19.80
2023-09-27T09:54:42.588Z,19.80
2023-09-27T09:59:47.333Z,20.00
2023-09-27T10:04:57.624Z,20.20
2023-09-27T10:10:01.026Z,20.30
2023-09-27T10:15:05.296Z,20.40
2023-09-27T10:20:15.378Z,20.50
2023-09-27T10:25:29.896Z,20.60
2023-09-27T10:30:45.272Z,20.70
2023-09-27T10:35:48.421Z,20.80
2023-09-27T10:40:52.001Z,21.00
2023-09-27T10:45:57.192Z,21.20
2023-09-27T10:50:59.638Z,21.30
2023-09-27T10:56:01.984Z,21.60
2023-09-27T11:01:05.910Z,21.90
2023-09-27T11:06:17.253Z,21.80
2023-09-27T11:11:19.097Z,22.10
2023-09-27T11:16:20.871Z,22.30
2023-09-27T11:21:25.186Z,22.40
2023-09-27T11:26:28.693Z,22.60
2023-09-27T11:31:38.211Z,22.60
2023-09-27T11:36:48.194Z,22.70
2023-09-27T11:41:50.152Z,23.10
2023-09-27T11:47:03.420Z,23.30
2023-09-27T11:52:11.679Z,23.50
2023-09-27T11:57:13.692Z,23.60
2023-09-27T12:02:28.225Z,23.70
2023-09-27T12:07:32.139Z,23.70
2023-09-27T12:12:34.800Z,23.80
2023-09-27T12:17:36.689Z,24.10
2023-09-27T12:22:41.534Z,24.10
2023-09-27T12:27:43.271Z,24.10
2023-09-27T12:32:45.128Z,24.40
2023-09-27T12:37:47.208Z,24.40
2023-09-27T12:42:49.040Z,24.60
2023-09-27T12:47:50.820Z,24.80
2023-09-27T12:52:52.584Z,24.90
2023-09-27T12:57:55.832Z,25.00
2023-09-27T13:02:58.533Z,25.10
2023-09-27T13:08:00.393Z,25.30
2023-09-27T13:13:05.294Z,25.50
2023-09-27T13:18:08.469Z,25.60
2023-09-27T13:23:10.365Z,25.90
2023-09-27T13:28:12.090Z,26.10
2023-09-27T13:33:14.110Z,26.20
2023-09-27T13:38:16.000Z,26.20
2023-09-27T13:43:17.802Z,26.20
2023-09-27T13:48:19.700Z,26.30
2023-09-27T13:53:21.527Z,26.70
2023-09-27T13:58:23.833Z,26.50
2023-09-27T14:03:25.722Z,26.80
2023-09-27T14:08:27.530Z,27.00
2023-09-27T14:13:29.352Z,27.30
2023-09-27T14:18:31.452Z,27.30
2023-09-27T14:23:34.057Z,27.20
2023-09-27T14:28:36.143Z,27.20
2023-09-27T14:33:39.502Z,27.10
2023-09-27T14:38:41.456Z,27.40
2023-09-27T14:43:43.398Z,27.20
2023-09-27T14:48:48.209Z,27.40
2023-09-27T14:53:49.980Z,27.20
2023-09-27T14:58:52.056Z,27.20
2023-09-27T15:03:55.354Z,27.10
2023-09-27T15:08:57.361Z,27.20
2023-09-27T15:13:59.402Z,26.70
2023-09-27T15:19:01.505Z,26.40
2023-09-27T15:24:03.721Z,26.20
2023-09-27T15:29:05.678Z,26.10
2023-09-27T15:34:07.563Z,26.10
2023-09-27T15:39:09.315Z,26.10
2023-09-27T15:44:11.022Z,25.90
2023-09-27T15:49:13.225Z,25.70
2023-09-27T15:54:18.841Z,25.60
2023-09-27T15:59:21.497Z,25.40
2023-09-27T16:04:26.090Z,25.20
2023-09-27T16:09:28.094Z,25.10
2023-09-27T16:14:32.276Z,25.00
2023-09-27T16:19:34.039Z,24.90
2023-09-27T16:24:35.780Z,24.80
2023-09-27T16:29:37.736Z,24.70
2023-09-27T16:34:43.038Z,24.60
2023-09-27T16:39:44.796Z,24.40
2023-09-27T16:44:46.501Z,24.00
2023-09-27T16:49:48.610Z,23.80
2023-09-27T16:54:50.409Z,23.60
2023-09-27T16:59:52.173Z,23.30
2023-09-27T17:04:53.912Z,23.00
2023-09-27T17:09:55.677Z,22.90
2023-09-27T17:14:57.445Z,22.70
2023-09-27T17:19:59.281Z,22.60
2023-09-27T17:25:01.701Z,22.40
2023-09-27T17:30:04.135Z,22.30
2023-09-27T17:35:06.469Z,22.10
2023-09-27T17:40:08.903Z,22.00
2023-09-27T17:45:10.773Z,22.00
2023-09-27T17:50:12.511Z,21.80
2023-09-27T17:55:14.227Z,21.70
2023-09-27T18:00:16.174Z,21.70
2023-09-27T18:05:17.937Z,21.70
2023-09-27T18:10:19.659Z,21.70
2023-09-27T18:15:27.852Z,21.50
2023-09-27T18:20:30.707Z,21.40
2023-09-27T18:25:33.263Z,21.30
2023-09-27T18:30:35.007Z,21.20
2023-09-27T18:35:37.110Z,21.10
2023-09-27T18:40:38.902Z,21.10
2023-09-27T18:45:40.770Z,21.00
2023-09-27T18:50:42.528Z,20.80
2023-09-27T18:55:45.512Z,20.70
2023-09-27T19:00:48.420Z,20.60
2023-09-27T19:05:50.176Z,20.50
2023-09-27T19:10:51.981Z,20.40
2023-09-27T19:15:53.869Z,20.30
2023-09-27T19:20:56.035Z,20.20
2023-09-27T19:25:57.975Z,20.00
2023-09-27T19:30:59.819Z,19.90
2023-09-27T19:36:01.856Z,19.90
2023-09-27T19:41:04.026Z,19.70
2023-09-27T19:46:05.883Z,19.70
2023-09-27T19:51:07.748Z,19.50
2023-09-27T19:56:09.743Z,19.40
2023-09-27T20:01:12.211Z,19.30
2023-09-27T20:06:14.166Z,19.20
2023-09-27T20:11:16.098Z,19.20
2023-09-27T20:16:17.998Z,19.10
2023-09-27T20:21:21.997Z,19.00
2023-09-27T20:26:23.752Z,18.90
2023-09-27T20:31:25.920Z,18.80
2023-09-27T20:36:28.215Z,18.90
2023-09-27T20:41:30.026Z,19.20
2023-09-27T20:46:31.971Z,19.30
2023-09-27T20:51:34.090Z,19.10
2023-09-27T20:56:35.923Z,18.90
2023-09-27T21:01:40.100Z,18.80
2023-09-27T21:06:42.820Z,18.70
2023-09-27T21:11:45.116Z,19.00
2023-09-27T21:16:47.096Z,19.00
2023-09-27T21:21:48.853Z,18.80
2023-09-27T21:26:51.080Z,18.70
2023-09-27T21:31:53.046Z,18.50
2023-09-27T21:36:55.855Z,18.40
2023-09-27T21:41:57.699Z,18.40
2023-09-27T21:46:59.670Z,18.30
2023-09-27T21:52:01.916Z,18.20
2023-09-27T21:57:04.086Z,18.20
2023-09-27T22:02:06.137Z,18.20
2023-09-27T22:07:08.028Z,18.20
2023-09-27T22:12:09.775Z,18.10
2023-09-27T22:17:11.607Z,18.00
2023-09-27T22:22:21.366Z,18.00
2023-09-27T22:27:27.635Z,18.00
2023-09-27T22:32:29.521Z,18.00
2023-09-27T22:37:32.667Z,17.90
2023-09-27T22:42:38.241Z,17.90
2023-09-27T22:47:40.022Z,18.00
2023-09-27T22:52:43.657Z,17.90
2023-09-27T22:57:45.418Z,17.80
2023-09-27T23:02:55.647Z,17.70
2023-09-27T23:08:00.790Z,17.70
2023-09-27T23:13:06.645Z,17.70
2023-09-27T23:18:14.648Z,17.60
2023-09-27T23:23:17.408Z,17.50
2023-09-27T23:28:28.365Z,17.50
2023-09-27T23:33:30.396Z,17.40
2023-09-27T23:38:50.504Z,17.30
2023-09-27T23:43:56.567Z,17.20
2023-09-27T23:49:02.825Z,17.10
2023-09-27T23:54:04.914Z,17.10
2023-09-27T23:59:20.673Z,17.00
